Time;durP1;ratioP1;P1;durP2;ratioP2;P2;SDS_P1;SDS_P2;PMS_P1;PMS_P2;Temp;Humidity;BMP_temperature;BMP_pressure;BME280_temperature;BME280_humidity;BME280_pressure;Samples;Min_cycle;Max_cycle;Signal;HPM_P1;HPM_P2
2021/01/25 00:00:56;;;;;;;5.97;3.63;;;-3.50;99.90;;;;;;8358863;28;20021;-72
2021/01/25 00:04:57;;;;;;;10.27;4.32;;;-3.50;99.90;;;;;;8358955;28;20057;-72
2021/01/25 00:08:57;;;;;;;6.20;3.58;;;-3.50;99.90;;;;;;8358876;28;20075;-71
2021/01/25 00:12:58;;;;;;;8.48;4.22;;;-3.40;99.90;;;;;;8359651;28;20028;-72
2021/01/25 00:17:00;;;;;;;8.50;3.92;;;-3.30;99.90;;;;;;8359731;28;20090;-71
2021/01/25 00:21:01;;;;;;;10.68;4.90;;;-3.20;99.90;;;;;;8358484;28;20040;-71
2021/01/25 00:25:01;;;;;;;4.78;2.83;;;-3.20;99.90;;;;;;8358288;28;20025;-72
2021/01/25 00:29:02;;;;;;;7.90;4.88;;;-3.10;99.90;;;;;;8359695;28;20447;-72
2021/01/25 00:33:03;;;;;;;9.38;4.32;;;-3.30;99.90;;;;;;8359351;28;20510;-74
2021/01/25 00:37:03;;;;;;;6.97;3.63;;;-3.40;99.90;;;;;;8359129;28;20032;-71
2021/01/25 00:41:04;;;;;;;9.77;4.38;;;-3.10;99.90;;;;;;8378540;28;20541;-71
2021/01/25 00:45:06;;;;;;;6.53;3.85;;;-3.10;99.90;;;;;;8392377;28;20047;-72
2021/01/25 00:49:07;;;;;;;7.07;3.92;;;-3.20;99.90;;;;;;8392386;28;20029;-71
2021/01/25 00:53:08;;;;;;;9.38;3.65;;;-3.20;99.90;;;;;;8392056;28;20591;-71
2021/01/25 00:57:08;;;;;;;6.20;3.50;;;-3.20;99.90;;;;;;8391036;28;20044;-71
2021/01/25 01:01:09;;;;;;;9.90;4.22;;;-2.80;99.90;;;;;;8392372;28;20032;-70
2021/01/25 01:05:10;;;;;;;6.07;3.70;;;-2.80;99.90;;;;;;8377786;28;20029;-70
2021/01/25 01:09:11;;;;;;;6.60;3.85;;;-2.60;99.90;;;;;;8359153;28;20108;-70
2021/01/25 01:13:11;;;;;;;8.63;4.28;;;-2.60;99.90;;;;;;8358712;28;20052;-70
2021/01/25 01:17:12;;;;;;;9.93;3.83;;;-2.70;99.90;;;;;;8363329;28;20479;-70
2021/01/25 01:21:12;;;;;;;11.98;4.32;;;-2.60;99.90;;;;;;8363533;28;20021;-71
2021/01/25 01:25:13;;;;;;;5.97;3.95;;;-2.60;99.90;;;;;;8364324;28;20051;-71
2021/01/25 01:29:14;;;;;;;6.55;3.97;;;-2.50;99.90;;;;;;8364499;28;20059;-71
2021/01/25 01:33:14;;;;;;;7.63;4.22;;;-2.50;99.90;;;;;;8364123;28;20047;-70
2021/01/25 01:37:15;;;;;;;8.30;3.90;;;-2.40;99.90;;;;;;8363755;28;20403;-70
2021/01/25 01:41:15;;;;;;;10.55;4.00;;;-2.60;99.90;;;;;;8362762;28;20021;-70
2021/01/25 01:45:16;;;;;;;7.85;3.75;;;-2.50;99.90;;;;;;8362461;28;20472;-70
2021/01/25 01:49:16;;;;;;;7.18;3.17;;;-2.30;99.90;;;;;;8363849;28;20403;-70
2021/01/25 01:53:18;;;;;;;8.35;4.00;;;-2.30;99.90;;;;;;8363608;28;20467;-70
2021/01/25 01:57:19;;;;;;;6.90;3.72;;;-2.20;99.90;;;;;;8363522;28;20029;-70
2021/01/25 02:01:19;;;;;;;8.80;3.20;;;-2.30;99.90;;;;;;8363343;28;20052;-70
2021/01/25 02:05:21;;;;;;;6.15;2.92;;;-2.30;99.90;;;;;;8361677;28;20080;-70
2021/01/25 02:09:24;;;;;;;6.80;3.30;;;-2.30;99.90;;;;;;8361936;28;20051;-71
2021/01/25 02:13:25;;;;;;;5.10;3.20;;;-2.30;99.90;;;;;;8365336;28;20094;-71
2021/01/25 02:17:26;;;;;;;6.35;2.95;;;-2.20;99.90;;;;;;8391610;28;20051;-70
2021/01/25 02:21:30;;;;;;;5.57;3.20;;;-2.30;99.90;;;;;;8396009;28;20032;-71
2021/01/25 02:25:47;;;;;;;8.43;3.80;;;-2.30;99.90;;;;;;8395268;28;20025;-72
2021/01/25 02:29:48;;;;;;;8.05;3.75;;;-2.30;99.90;;;;;;8394074;28;20021;-70
2021/01/25 02:33:54;;;;;;;7.00;3.33;;;-2.20;99.90;;;;;;8394995;28;20103;-71
2021/01/25 02:37:56;;;;;;;6.55;3.67;;;-2.00;99.90;;;;;;8395630;28;20055;-71
2021/01/25 02:41:59;;;;;;;5.32;3.20;;;-2.00;99.90;;;;;;8395218;28;20021;-71
2021/01/25 02:46:00;;;;;;;6.32;3.70;;;-2.10;99.90;;;;;;8394753;28;20024;-70
2021/01/25 02:50:01;;;;;;;6.88;3.35;;;-2.10;99.90;;;;;;8393693;28;20056;-70
2021/01/25 02:54:02;;;;;;;8.20;3.67;;;-2.10;99.90;;;;;;8394588;28;20031;-70
2021/01/25 02:58:03;;;;;;;6.80;3.47;;;-2.20;99.90;;;;;;8394770;28;20031;-70
2021/01/25 03:02:06;;;;;;;4.97;3.08;;;-2.00;99.90;;;;;;8393287;28;20075;-70
2021/01/25 03:06:07;;;;;;;6.45;2.55;;;-1.70;99.90;;;;;;8372232;28;20074;-70
2021/01/25 03:10:08;;;;;;;4.55;3.00;;;-1.90;99.90;;;;;;8361260;28;20044;-70
2021/01/25 03:14:10;;;;;;;7.20;2.67;;;-1.70;99.90;;;;;;8360875;28;20029;-70
2021/01/25 03:18:11;;;;;;;6.68;3.05;;;-1.70;99.90;;;;;;8360895;28;20056;-70
2021/01/25 03:22:11;;;;;;;4.88;2.50;;;-1.70;99.90;;;;;;8361026;28;20104;-70
2021/01/25 03:26:12;;;;;;;3.72;2.20;;;-1.90;99.90;;;;;;8360375;28;20029;-70
2021/01/25 03:30:13;;;;;;;3.42;2.33;;;-1.80;99.90;;;;;;8360611;28;20498;-69
2021/01/25 03:34:14;;;;;;;3.05;2.10;;;-1.90;99.90;;;;;;8359869;28;20017;-70
2021/01/25 03:38:14;;;;;;;4.45;2.35;;;-1.70;99.90;;;;;;8360355;28;20490;-70
2021/01/25 03:42:15;;;;;;;2.33;1.63;;;-1.80;99.90;;;;;;8359215;28;20028;-69
2021/01/25 03:46:16;;;;;;;2.08;1.60;;;-1.70;99.90;;;;;;8360003;28;20044;-70
2021/01/25 03:50:17;;;;;;;3.58;1.92;;;-1.50;99.90;;;;;;8360303;28;20494;-70
2021/01/25 03:54:17;;;;;;;3.03;1.50;;;-1.40;99.90;;;;;;8391547;28;20037;-70
2021/01/25 03:58:18;;;;;;;3.08;1.45;;;-1.40;99.90;;;;;;8393295;28;20078;-69
2021/01/25 04:02:18;;;;;;;2.35;1.27;;;-1.20;99.90;;;;;;8393192;28;20035;-70
2021/01/25 04:06:19;;;;;;;2.83;1.02;;;-1.20;99.90;;;;;;8392905;28;20028;-70
2021/01/25 04:10:19;;;;;;;2.15;1.23;;;-1.20;99.90;;;;;;8393005;28;20109;-70
2021/01/25 04:14:20;;;;;;;2.60;1.60;;;-1.20;99.90;;;;;;8392728;28;20033;-71
2021/01/25 04:18:20;;;;;;;1.70;1.10;;;-1.10;99.90;;;;;;8392789;28;20426;-70
2021/01/25 04:22:21;;;;;;;3.25;1.13;;;-1.00;99.90;;;;;;8392942;28;20029;-69
2021/01/25 04:26:22;;;;;;;1.70;1.20;;;-1.10;99.90;;;;;;8391266;28;20028;-70
2021/01/25 04:30:24;;;;;;;2.17;1.20;;;-1.00;99.90;;;;;;8389773;28;20036;-70
2021/01/25 04:34:25;;;;;;;1.90;1.42;;;-1.10;99.90;;;;;;8358890;28;20025;-70
2021/01/25 04:38:25;;;;;;;1.30;0.93;;;-1.10;99.90;;;;;;8359483;28;20108;-70
2021/01/25 04:42:27;;;;;;;1.50;1.10;;;-1.10;99.90;;;;;;8374671;28;20040;-69
2021/01/25 04:46:29;;;;;;;1.55;1.17;;;-1.20;99.90;;;;;;8374760;28;20020;-70
2021/01/25 04:50:30;;;;;;;4.25;2.20;;;-1.20;99.90;;;;;;8374644;28;20107;-70
2021/01/25 04:54:32;;;;;;;2.83;1.30;;;-1.30;99.90;;;;;;8365377;28;20029;-70
2021/01/25 04:58:35;;;;;;;2.25;1.20;;;-1.30;99.90;;;;;;8388072;28;20449;-71
2021/01/25 05:02:37;;;;;;;1.20;0.90;;;-1.20;99.90;;;;;;8375887;28;20033;-70
2021/01/25 05:06:38;;;;;;;1.40;1.13;;;-1.20;99.90;;;;;;8373776;28;20029;-70
2021/01/25 05:10:39;;;;;;;1.60;1.08;;;-1.10;99.90;;;;;;8387004;28;20024;-70
2021/01/25 05:14:43;;;;;;;4.00;1.73;;;-1.00;99.90;;;;;;8397020;28;20044;-70
2021/01/25 05:18:45;;;;;;;3.25;1.90;;;-1.00;99.90;;;;;;8385486;28;20044;-70
2021/01/25 05:22:45;;;;;;;3.13;2.10;;;-1.10;99.90;;;;;;8369470;28;20028;-70
2021/01/25 05:26:56;;;;;;;1.05;0.73;;;-0.90;99.90;;;;;;8364270;28;20032;-71
2021/01/25 05:30:56;;;;;;;1.73;1.20;;;-0.90;99.90;;;;;;8396274;28;20052;-70
2021/01/25 05:35:04;;;;;;;2.72;1.08;;;-0.90;99.90;;;;;;8383332;28;20453;-70
2021/01/25 05:39:07;;;;;;;0.88;0.68;;;-0.90;99.90;;;;;;8360908;28;20052;-70
2021/01/25 05:43:15;;;;;;;1.00;0.70;;;-0.90;99.90;;;;;;8362023;28;20424;-70
2021/01/25 05:47:15;;;;;;;0.43;0.43;;;-0.80;99.90;;;;;;8360995;28;20025;-70
2021/01/25 05:51:18;;;;;;;1.27;0.85;;;-0.70;99.90;;;;;;8359919;28;20028;-70
2021/01/25 05:55:19;;;;;;;0.30;0.30;;;-0.70;99.90;;;;;;8363524;28;20032;-70
2021/01/25 05:59:21;;;;;;;0.75;0.73;;;-0.60;99.90;;;;;;8402431;28;20052;-70
2021/01/25 06:03:22;;;;;;;1.38;1.10;;;-0.50;99.90;;;;;;8393811;28;20021;-71
2021/01/25 06:07:23;;;;;;;2.05;1.30;;;-0.40;99.90;;;;;;8392822;28;20044;-70
2021/01/25 06:11:28;;;;;;;1.52;1.13;;;-0.30;99.90;;;;;;8381190;28;20029;-70
2021/01/25 06:15:33;;;;;;;6.75;1.80;;;-0.20;99.90;;;;;;8362703;28;20024;-70
2021/01/25 06:19:34;;;;;;;2.35;1.90;;;-0.20;99.90;;;;;;8362986;28;20033;-70
2021/01/25 06:23:36;;;;;;;2.00;1.75;;;-0.10;99.90;;;;;;8392215;28;20041;-70
2021/01/25 06:27:37;;;;;;;1.55;1.25;;;-0.10;99.90;;;;;;8394138;28;20391;-70
2021/01/25 06:31:40;;;;;;;2.28;1.90;;;0.00;99.90;;;;;;8391457;28;20052;-72
2021/01/25 06:35:40;;;;;;;0.85;0.80;;;0.00;99.90;;;;;;8378611;28;20049;-71
2021/01/25 06:39:48;;;;;;;1.95;1.80;;;0.00;99.90;;;;;;8379060;28;20031;-72
2021/01/25 06:43:49;;;;;;;1.50;1.27;;;0.00;99.90;;;;;;8392799;28;20036;-74
2021/01/25 06:47:50;;;;;;;2.70;2.08;;;0.10;99.90;;;;;;8385944;28;20755;-74
2021/01/25 06:51:53;;;;;;;2.53;2.20;;;0.00;99.90;;;;;;8360041;28;20033;-75
2021/01/25 06:56:01;;;;;;;3.25;2.25;;;0.00;99.90;;;;;;8363742;28;20499;-74
2021/01/25 07:00:09;;;;;;;3.58;2.83;;;0.10;99.90;;;;;;8377077;28;20021;-73
2021/01/25 07:04:14;;;;;;;3.88;1.80;;;0.10;99.90;;;;;;8381830;28;20039;-73
2021/01/25 07:08:20;;;;;;;4.68;3.00;;;0.10;99.90;;;;;;8392133;28;20029;-74
2021/01/25 07:12:22;;;;;;;3.03;2.47;;;0.00;99.90;;;;;;8375291;28;20544;-73
2021/01/25 07:16:23;;;;;;;3.60;2.75;;;0.10;99.90;;;;;;8374168;28;20036;-75
2021/01/25 07:20:24;;;;;;;4.65;3.08;;;0.20;99.90;;;;;;8379297;28;20020;-73
2021/01/25 07:24:26;;;;;;;5.68;3.25;;;0.10;99.90;;;;;;8374933;28;20081;-74
2021/01/25 07:28:29;;;;;;;2.80;2.08;;;0.20;99.90;;;;;;8359537;28;20023;-74
2021/01/25 07:32:29;;;;;;;3.70;2.83;;;0.30;99.90;;;;;;8360799;28;20036;-74
2021/01/25 07:36:34;;;;;;;4.32;2.70;;;0.40;99.90;;;;;;8367400;28;20039;-74
2021/01/25 07:40:35;;;;;;;4.28;2.83;;;0.50;99.90;;;;;;8409309;28;20115;-74
2021/01/25 07:44:36;;;;;;;3.85;2.95;;;0.50;99.90;;;;;;8409081;28;20025;-74
2021/01/25 07:48:50;;;;;;;4.38;2.95;;;0.60;99.90;;;;;;8380968;28;20020;-74
2021/01/25 07:52:58;;;;;;;3.92;2.38;;;0.60;99.90;;;;;;8375278;28;20032;-73
2021/01/25 07:56:59;;;;;;;4.07;2.67;;;0.70;99.90;;;;;;8377411;28;20021;-73
2021/01/25 08:01:08;;;;;;;5.13;3.28;;;0.90;99.90;;;;;;8371822;28;20040;-74
2021/01/25 08:05:11;;;;;;;1.50;0.95;;;0.90;99.90;;;;;;8379356;28;20052;-73
2021/01/25 08:09:18;;;;;;;3.50;2.75;;;0.90;99.90;;;;;;8371725;28;20020;-73
2021/01/25 08:13:23;;;;;;;3.65;3.00;;;0.90;99.90;;;;;;8378269;28;20024;-73
2021/01/25 08:17:33;;;;;;;2.65;2.35;;;0.90;99.90;;;;;;8392005;28;20093;-73
2021/01/25 08:21:38;;;;;;;3.45;2.50;;;1.00;99.90;;;;;;8376349;28;20052;-74
2021/01/25 08:25:39;;;;;;;3.80;3.08;;;1.00;99.90;;;;;;8366339;28;20043;-73
2021/01/25 08:29:41;;;;;;;2.47;2.15;;;1.20;99.90;;;;;;8380409;28;20451;-74
2021/01/25 08:33:59;;;;;;;2.85;2.38;;;1.20;99.90;;;;;;8379943;28;20033;-73
2021/01/25 08:38:29;;;;;;;3.85;2.70;;;1.30;99.90;;;;;;8373186;28;20020;-74
2021/01/25 08:42:33;;;;;;;2.78;2.47;;;1.40;99.90;;;;;;8372550;28;20691;-73
2021/01/25 08:46:38;;;;;;;3.47;2.17;;;1.60;99.90;;;;;;8391199;28;20028;-74
2021/01/25 08:50:39;;;;;;;2.70;2.30;;;1.80;99.90;;;;;;8381853;28;20021;-74
2021/01/25 08:54:40;;;;;;;2.55;2.20;;;2.30;99.90;;;;;;8365949;28;20068;-74
2021/01/25 08:58:41;;;;;;;2.80;1.85;;;2.60;99.90;;;;;;8365251;28;20021;-73
2021/01/25 09:02:43;;;;;;;2.83;2.13;;;2.90;99.90;;;;;;8382643;28;20475;-73
2021/01/25 09:06:49;;;;;;;2.22;1.67;;;3.00;99.90;;;;;;8379885;28;20479;-74
2021/01/25 09:10:50;;;;;;;2.42;1.85;;;3.00;99.90;;;;;;8397720;28;20025;-72
2021/01/25 09:14:50;;;;;;;1.90;1.70;;;2.80;99.90;;;;;;8396425;28;20033;-72
2021/01/25 09:18:51;;;;;;;2.55;2.10;;;3.00;99.90;;;;;;8394216;28;20040;-72
2021/01/25 09:22:52;;;;;;;2.33;1.90;;;3.40;99.90;;;;;;8386331;28;20071;-72
2021/01/25 09:26:52;;;;;;;2.53;1.48;;;3.30;99.90;;;;;;8369054;28;20040;-72
2021/01/25 09:30:53;;;;;;;2.50;1.83;;;3.40;99.90;;;;;;8376120;28;20025;-72
2021/01/25 09:34:54;;;;;;;2.05;1.83;;;3.30;99.90;;;;;;8382473;28;20031;-73
2021/01/25 09:38:54;;;;;;;1.60;1.50;;;3.20;99.90;;;;;;8383603;28;21579;-72
2021/01/25 09:42:55;;;;;;;1.95;1.65;;;3.20;99.90;;;;;;8374215;28;20549;-72
2021/01/25 09:46:57;;;;;;;3.25;1.40;;;3.40;99.90;;;;;;8375757;28;20056;-72
2021/01/25 09:50:58;;;;;;;2.70;1.90;;;3.50;99.90;;;;;;8380858;28;20013;-73
2021/01/25 09:54:59;;;;;;;1.25;1.10;;;3.70;99.90;;;;;;8390166;28;20028;-73
2021/01/25 09:59:00;;;;;;;2.13;1.33;;;3.70;99.90;;;;;;8400641;28;20020;-72
2021/01/25 10:03:01;;;;;;;0.68;0.68;;;3.50;99.90;;;;;;8396876;28;20059;-72
2021/01/25 10:07:01;;;;;;;1.63;1.33;;;2.70;99.90;;;;;;8375834;28;20506;-72
2021/01/25 10:11:04;;;;;;;1.63;1.33;;;2.40;99.90;;;;;;8379265;28;20052;-73
2021/01/25 10:15:10;;;;;;;1.05;0.98;;;2.30;99.90;;;;;;8389959;28;20059;-72
2021/01/25 10:19:10;;;;;;;2.47;1.38;;;2.20;99.90;;;;;;8397940;28;20032;-72
2021/01/25 10:23:11;;;;;;;1.38;1.10;;;2.10;99.90;;;;;;8388193;28;20040;-72
2021/01/25 10:27:12;;;;;;;1.70;0.90;;;2.20;99.90;;;;;;8387757;28;20645;-71
2021/01/25 10:31:13;;;;;;;1.02;0.70;;;2.10;99.90;;;;;;8380199;28;20218;-72
2021/01/25 10:35:14;;;;;;;1.48;0.90;;;1.90;99.90;;;;;;8411612;28;20036;-72
2021/01/25 10:39:15;;;;;;;1.17;1.08;;;1.80;99.90;;;;;;8389649;28;20123;-72
2021/01/25 10:43:15;;;;;;;1.58;1.10;;;1.80;99.90;;;;;;8402966;28;20074;-72
2021/01/25 10:47:19;;;;;;;1.23;0.88;;;1.90;99.90;;;;;;8417953;28;20043;-72
2021/01/25 10:51:20;;;;;;;1.20;1.10;;;1.80;99.90;;;;;;8411919;28;20085;-72
2021/01/25 10:55:20;;;;;;;1.50;1.10;;;2.00;99.90;;;;;;8402003;28;20032;-72
2021/01/25 10:59:21;;;;;;;2.33;0.80;;;2.10;99.90;;;;;;8388497;28;20028;-72
2021/01/25 11:03:21;;;;;;;1.00;0.80;;;2.40;99.90;;;;;;8386692;28;20541;-73
2021/01/25 11:07:23;;;;;;;0.70;0.70;;;2.60;99.90;;;;;;8402726;28;20483;-73
2021/01/25 11:11:23;;;;;;;0.80;0.80;;;3.30;99.90;;;;;;8391042;28;20036;-72
2021/01/25 11:15:24;;;;;;;0.75;0.70;;;3.30;99.90;;;;;;8423808;28;20029;-73
2021/01/25 11:19:24;;;;;;;1.27;1.00;;;3.40;99.90;;;;;;8411899;28;20024;-73
2021/01/25 11:23:26;;;;;;;1.08;0.82;;;3.40;99.90;;;;;;8410917;28;20025;-73
2021/01/25 11:27:27;;;;;;;0.40;0.40;;;3.00;99.90;;;;;;8427051;28;20036;-72
2021/01/25 11:31:28;;;;;;;1.30;0.77;;;2.70;99.90;;;;;;8418783;28;20021;-73
2021/01/25 11:35:28;;;;;;;1.80;0.93;;;2.40;99.90;;;;;;8376943;28;20032;-72
2021/01/25 11:39:30;;;;;;;0.90;0.80;;;2.30;99.90;;;;;;8377255;28;20032;-72
2021/01/25 11:43:31;;;;;;;3.42;1.00;;;2.60;99.90;;;;;;8410852;28;20062;-75
2021/01/25 11:47:32;;;;;;;1.33;1.00;;;2.60;99.90;;;;;;8380314;28;20025;-75
2021/01/25 11:51:32;;;;;;;1.10;0.88;;;2.80;99.90;;;;;;8393235;28;20024;-74
2021/01/25 11:55:33;;;;;;;1.05;0.95;;;3.10;99.90;;;;;;8392526;28;20028;-74
2021/01/25 11:59:33;;;;;;;2.47;1.20;;;3.10;99.90;;;;;;8396072;28;20021;-74
2021/01/25 12:03:34;;;;;;;0.80;0.63;;;2.50;99.90;;;;;;8391764;28;20115;-72
2021/01/25 12:07:34;;;;;;;1.92;1.30;;;2.40;99.90;;;;;;8376419;28;20025;-72
2021/01/25 12:11:35;;;;;;;2.10;1.17;;;2.20;99.90;;;;;;8390998;28;20023;-72
2021/01/25 12:15:35;;;;;;;1.73;1.20;;;2.30;99.90;;;;;;8388985;28;20021;-72
2021/01/25 12:19:36;;;;;;;1.38;1.10;;;2.20;99.90;;;;;;8403253;28;20033;-74
2021/01/25 12:23:37;;;;;;;3.80;1.10;;;1.90;99.90;;;;;;8402028;28;20373;-74
2021/01/25 12:27:38;;;;;;;1.75;1.00;;;1.80;99.90;;;;;;8409615;28;20043;-74
2021/01/25 12:31:39;;;;;;;0.80;0.55;;;1.80;99.90;;;;;;8415242;28;20021;-74
2021/01/25 12:35:39;;;;;;;1.40;1.00;;;1.80;99.90;;;;;;8394061;28;20024;-75
2021/01/25 12:39:40;;;;;;;1.48;1.10;;;1.80;99.90;;;;;;8408292;28;20032;-74
2021/01/25 12:43:41;;;;;;;0.77;0.47;;;1.80;99.90;;;;;;8392369;28;20039;-73
2021/01/25 12:47:41;;;;;;;0.73;0.70;;;1.90;99.90;;;;;;8390177;28;20032;-74
2021/01/25 12:51:42;;;;;;;5.35;1.55;;;2.10;99.90;;;;;;8409457;28;20128;-74
2021/01/25 12:55:43;;;;;;;1.85;0.70;;;2.10;99.90;;;;;;8411462;28;20025;-73
2021/01/25 12:59:44;;;;;;;3.03;0.85;;;2.20;99.90;;;;;;8391526;28;20063;-73
2021/01/25 13:03:45;;;;;;;2.20;1.50;;;2.10;99.90;;;;;;8391818;28;20025;-73
2021/01/25 13:07:46;;;;;;;2.63;1.38;;;2.30;99.90;;;;;;8392002;28;20099;-73
2021/01/25 13:11:46;;;;;;;1.55;1.35;;;2.50;99.90;;;;;;8394992;28;20018;-73
2021/01/25 13:15:47;;;;;;;2.13;1.50;;;2.60;99.90;;;;;;8413772;28;20032;-73
2021/01/25 13:19:49;;;;;;;1.25;1.15;;;2.60;99.90;;;;;;8399138;28;20021;-73
2021/01/25 13:23:49;;;;;;;1.42;1.27;;;2.80;99.90;;;;;;8397807;28;20033;-73
2021/01/25 13:27:50;;;;;;;4.20;1.33;;;3.10;99.90;;;;;;8399711;28;20040;-72
2021/01/25 13:31:51;;;;;;;2.15;1.40;;;3.40;99.90;;;;;;8396598;28;20052;-73
2021/01/25 13:35:51;;;;;;;2.03;1.20;;;3.70;99.90;;;;;;8411200;28;20032;-73
2021/01/25 13:39:52;;;;;;;3.90;1.58;;;4.20;99.90;;;;;;8418861;28;20024;-73
2021/01/25 13:43:52;;;;;;;2.05;1.23;;;4.30;99.90;;;;;;8406287;28;20062;-73
2021/01/25 13:47:53;;;;;;;1.88;1.40;;;4.50;99.90;;;;;;8405888;28;20032;-73
2021/01/25 13:51:54;;;;;;;1.42;1.17;;;4.80;99.90;;;;;;8402197;28;20033;-73
2021/01/25 13:55:55;;;;;;;1.27;1.17;;;4.80;99.90;;;;;;8380950;28;20517;-73
2021/01/25 13:59:55;;;;;;;1.95;1.40;;;4.50;99.90;;;;;;8379831;28;20029;-72
2021/01/25 14:03:56;;;;;;;1.95;1.45;;;4.30;99.90;;;;;;8378845;28;20036;-72
2021/01/25 14:07:58;;;;;;;1.92;1.45;;;4.30;99.90;;;;;;8379720;28;20036;-73
2021/01/25 14:11:58;;;;;;;1.92;1.20;;;4.40;99.90;;;;;;8405439;28;20035;-72
2021/01/25 14:15:59;;;;;;;3.20;1.40;;;4.70;99.90;;;;;;8379807;28;20059;-73
2021/01/25 14:20:01;;;;;;;2.85;1.27;;;4.70;99.90;;;;;;8386236;28;20021;-73
2021/01/25 14:24:02;;;;;;;3.42;1.45;;;4.70;99.90;;;;;;8393127;28;20052;-72
2021/01/25 14:28:03;;;;;;;2.20;1.38;;;4.60;99.90;;;;;;8388778;28;20036;-72
2021/01/25 14:32:04;;;;;;;2.67;1.40;;;4.40;99.90;;;;;;8397861;28;20104;-75
2021/01/25 14:36:05;;;;;;;3.65;1.38;;;4.00;99.90;;;;;;8392900;28;20021;-75
2021/01/25 14:40:14;;;;;;;1.38;0.93;;;4.00;99.90;;;;;;8386121;28;20130;-70
2021/01/25 14:44:15;;;;;;;1.83;1.20;;;3.80;99.90;;;;;;8392037;28;20025;-72
2021/01/25 14:48:16;;;;;;;2.63;1.40;;;3.20;99.90;;;;;;8391980;28;20017;-72
2021/01/25 14:52:16;;;;;;;1.55;0.60;;;2.90;99.90;;;;;;8387767;28;20051;-72
2021/01/25 14:56:17;;;;;;;2.65;1.02;;;2.70;99.90;;;;;;8385731;28;20031;-72
2021/01/25 15:00:20;;;;;;;1.38;1.02;;;2.50;99.90;;;;;;8384913;28;20020;-72
2021/01/25 15:04:21;;;;;;;2.88;1.10;;;2.60;99.90;;;;;;8383891;28;20088;-71
2021/01/25 15:08:22;;;;;;;2.60;1.27;;;2.60;99.90;;;;;;8410479;28;20017;-71
2021/01/25 15:12:22;;;;;;;1.73;1.05;;;2.50;99.90;;;;;;8410760;28;20396;-70
2021/01/25 15:16:23;;;;;;;2.38;1.30;;;2.50;99.90;;;;;;8395333;28;20418;-71
2021/01/25 15:20:28;;;;;;;3.13;1.52;;;2.60;99.90;;;;;;8417721;28;20043;-70
2021/01/25 15:24:29;;;;;;;3.58;1.77;;;2.50;99.90;;;;;;8389938;28;20032;-70
2021/01/25 15:28:29;;;;;;;20.83;10.10;;;2.20;99.90;;;;;;8384088;28;20096;-71
2021/01/25 15:32:30;;;;;;;5.45;4.18;;;2.00;99.90;;;;;;8388850;28;20550;-72
2021/01/25 15:36:36;;;;;;;6.20;3.67;;;2.00;99.90;;;;;;8375868;28;21303;-72
2021/01/25 15:40:36;;;;;;;4.60;1.27;;;1.80;99.90;;;;;;8376247;28;20031;-73
2021/01/25 15:44:38;;;;;;;4.57;1.70;;;1.70;99.90;;;;;;8368764;28;20040;-76
2021/01/25 15:48:38;;;;;;;4.03;2.10;;;1.50;99.90;;;;;;8377176;28;20020;-76
2021/01/25 15:52:40;;;;;;;8.15;3.10;;;1.40;99.90;;;;;;8383152;28;20680;-72
2021/01/25 15:56:42;;;;;;;2.35;1.30;;;1.40;99.90;;;;;;8371249;28;20036;-71
2021/01/25 16:00:43;;;;;;;8.73;4.32;;;1.30;99.90;;;;;;8376773;28;20028;-71
2021/01/25 16:04:43;;;;;;;3.22;2.03;;;1.00;99.90;;;;;;8382359;28;20032;-70
2021/01/25 16:08:45;;;;;;;6.65;2.88;;;0.90;99.90;;;;;;8382039;28;20621;-68
2021/01/25 16:12:45;;;;;;;4.68;3.22;;;0.80;99.90;;;;;;8369569;28;20510;-69
2021/01/25 16:16:46;;;;;;;5.28;2.30;;;0.50;99.90;;;;;;8376772;28;20043;-69
2021/01/25 16:20:47;;;;;;;6.47;3.25;;;0.50;99.90;;;;;;8382843;28;20532;-69
2021/01/25 16:24:47;;;;;;;6.97;5.15;;;0.40;99.90;;;;;;8374121;28;20036;-70
2021/01/25 16:28:48;;;;;;;1.95;1.63;;;0.20;99.90;;;;;;8370176;28;20047;-71
2021/01/25 16:32:49;;;;;;;2.95;1.40;;;0.00;99.90;;;;;;8373953;28;20032;-71
2021/01/25 16:36:49;;;;;;;2.38;1.30;;;0.00;99.90;;;;;;8375368;28;20020;-72
2021/01/25 16:40:50;;;;;;;5.57;2.08;;;-0.20;99.90;;;;;;8376498;28;20028;-72
2021/01/25 16:44:51;;;;;;;3.05;1.88;;;-0.10;99.90;;;;;;8383553;28;20036;-72
2021/01/25 16:48:51;;;;;;;6.13;2.75;;;0.00;99.90;;;;;;8381208;28;20025;-73
2021/01/25 16:52:52;;;;;;;4.40;2.60;;;0.00;99.90;;;;;;8373429;28;20021;-71
2021/01/25 16:56:52;;;;;;;6.03;1.85;;;0.10;99.90;;;;;;8378277;28;20104;-72
2021/01/25 17:00:56;;;;;;;3.30;2.15;;;0.30;99.90;;;;;;8379337;28;20017;-72
2021/01/25 17:04:56;;;;;;;2.20;1.65;;;0.40;99.90;;;;;;8392671;28;20047;-72
2021/01/25 17:08:57;;;;;;;3.40;2.15;;;0.30;99.90;;;;;;8373815;28;20029;-72
2021/01/25 17:12:57;;;;;;;5.40;4.25;;;0.30;99.90;;;;;;8374765;28;20017;-71
2021/01/25 17:16:58;;;;;;;6.18;3.72;;;0.40;99.90;;;;;;8380830;28;20483;-72
2021/01/25 17:20:59;;;;;;;5.63;2.78;;;0.50;99.90;;;;;;8380121;28;20114;-71
2021/01/25 17:24:59;;;;;;;3.47;2.15;;;0.50;99.90;;;;;;8373254;28;20025;-72
2021/01/25 17:29:01;;;;;;;5.03;2.92;;;0.40;99.90;;;;;;8367082;28;20402;-72
2021/01/25 17:33:02;;;;;;;2.20;1.42;;;0.40;99.90;;;;;;8363022;28;20021;-72
2021/01/25 17:37:03;;;;;;;2.40;1.60;;;0.40;99.90;;;;;;8372951;28;20564;-71
2021/01/25 17:41:04;;;;;;;2.20;1.70;;;0.50;99.90;;;;;;8388075;28;20028;-71
2021/01/25 17:45:08;;;;;;;2.60;1.42;;;0.50;99.90;;;;;;8363955;28;20052;-71
2021/01/25 17:49:09;;;;;;;4.28;1.50;;;0.60;99.90;;;;;;8364052;28;20112;-71
2021/01/25 17:53:14;;;;;;;2.38;1.42;;;0.50;99.90;;;;;;8362298;28;20064;-71
2021/01/25 17:57:15;;;;;;;3.25;1.42;;;0.40;99.90;;;;;;8363784;28;20058;-71
2021/01/25 18:01:16;;;;;;;2.20;1.67;;;0.40;99.90;;;;;;8367522;28;20024;-71
2021/01/25 18:05:18;;;;;;;2.85;1.75;;;0.40;99.90;;;;;;8381785;28;20036;-71
2021/01/25 18:09:19;;;;;;;5.60;3.47;;;0.40;99.90;;;;;;8385407;28;21374;-71
2021/01/25 18:13:20;;;;;;;28.30;11.30;;;0.30;99.90;;;;;;8381734;28;20017;-71
2021/01/25 18:17:21;;;;;;;3.28;1.92;;;0.20;99.90;;;;;;8374816;28;20035;-72
2021/01/25 18:21:21;;;;;;;39.38;15.65;;;0.40;99.90;;;;;;8373133;28;20406;-71
2021/01/25 18:25:23;;;;;;;14.95;6.07;;;0.50;99.90;;;;;;8371674;28;20042;-71
2021/01/25 18:29:24;;;;;;;13.25;5.85;;;0.40;99.90;;;;;;8365226;28;20052;-71
2021/01/25 18:33:24;;;;;;;8.05;4.65;;;0.40;99.90;;;;;;8397781;28;20119;-71
2021/01/25 18:37:26;;;;;;;1.77;1.42;;;0.30;99.90;;;;;;8378987;28;20637;-71
2021/01/25 18:41:27;;;;;;;5.35;3.05;;;0.30;99.90;;;;;;8372274;28;20037;-72
2021/01/25 18:45:30;;;;;;;3.78;2.40;;;0.20;99.90;;;;;;8370732;28;20036;-72
2021/01/25 18:49:31;;;;;;;7.93;4.70;;;0.20;99.90;;;;;;8373258;28;20077;-71
2021/01/25 18:53:32;;;;;;;4.30;2.58;;;0.20;99.90;;;;;;8372487;28;20458;-71
2021/01/25 18:57:32;;;;;;;1.92;1.23;;;0.20;99.90;;;;;;8381630;28;20032;-72
2021/01/25 19:01:33;;;;;;;3.33;2.30;;;0.40;99.90;;;;;;8372263;28;20039;-71
2021/01/25 19:05:34;;;;;;;2.00;1.55;;;0.30;99.90;;;;;;8366530;28;20121;-71
2021/01/25 19:09:35;;;;;;;3.42;1.90;;;0.40;99.90;;;;;;8363820;28;20082;-70
2021/01/25 19:13:36;;;;;;;1.73;1.35;;;0.40;99.90;;;;;;8363254;28;20284;-73
2021/01/25 19:17:36;;;;;;;2.17;1.38;;;0.40;99.90;;;;;;8365559;28;20029;-71
2021/01/25 19:21:37;;;;;;;2.10;1.58;;;0.30;99.90;;;;;;8372000;28;20654;-73
2021/01/25 19:25:40;;;;;;;2.35;1.63;;;0.30;99.90;;;;;;8370855;28;20099;-72
2021/01/25 19:29:40;;;;;;;2.40;1.58;;;0.20;99.90;;;;;;8369572;28;20597;-71
2021/01/25 19:33:41;;;;;;;2.83;1.90;;;0.20;99.90;;;;;;8380564;28;20073;-74
2021/01/25 19:37:42;;;;;;;2.47;1.70;;;0.20;99.90;;;;;;8374264;28;20025;-73
2021/01/25 19:41:42;;;;;;;2.40;1.63;;;0.10;99.90;;;;;;8360245;28;20055;-74
2021/01/25 19:45:46;;;;;;;3.15;2.03;;;0.10;99.90;;;;;;8363392;28;20036;-74
2021/01/25 19:49:46;;;;;;;3.45;2.22;;;0.10;99.90;;;;;;8365837;28;20025;-73
2021/01/25 19:53:47;;;;;;;5.47;3.15;;;0.00;99.90;;;;;;8362740;28;20481;-74
2021/01/25 19:57:48;;;;;;;4.07;2.80;;;0.00;99.90;;;;;;8367449;28;20093;-74
2021/01/25 20:01:48;;;;;;;3.88;1.98;;;0.10;99.90;;;;;;8364544;28;20033;-74
2021/01/25 20:05:51;;;;;;;3.58;2.40;;;0.10;99.90;;;;;;8362800;28;20033;-74
2021/01/25 20:09:51;;;;;;;4.22;2.75;;;0.10;99.90;;;;;;8363473;28;20204;-73
2021/01/25 20:13:53;;;;;;;8.05;2.95;;;0.10;99.90;;;;;;8366262;28;20021;-74
2021/01/25 20:17:53;;;;;;;5.00;3.40;;;0.00;99.90;;;;;;8368906;28;20037;-74
2021/01/25 20:21:54;;;;;;;5.72;4.10;;;0.00;99.90;;;;;;8375281;28;20063;-73
2021/01/25 20:25:55;;;;;;;6.18;3.83;;;0.10;99.90;;;;;;8384143;28;20032;-74
2021/01/25 20:29:55;;;;;;;6.57;4.13;;;0.20;99.90;;;;;;8376497;28;20534;-74
2021/01/25 20:33:56;;;;;;;4.43;3.00;;;0.20;99.90;;;;;;8375630;28;20139;-74
2021/01/25 20:37:57;;;;;;;5.93;4.10;;;0.10;99.90;;;;;;8396784;28;20024;-74
2021/01/25 20:41:58;;;;;;;6.18;4.38;;;0.10;99.90;;;;;;8386444;28;20163;-73
2021/01/25 20:45:59;;;;;;;6.40;3.80;;;0.00;99.90;;;;;;8383588;28;20484;-74
2021/01/25 20:50:00;;;;;;;8.07;4.45;;;-0.10;99.90;;;;;;8369027;28;20027;-74
2021/01/25 20:54:01;;;;;;;7.07;4.07;;;-0.10;99.90;;;;;;8389422;28;20040;-73
2021/01/25 20:58:02;;;;;;;6.25;4.00;;;-0.30;99.90;;;;;;8375157;28;20047;-74
2021/01/25 21:02:02;;;;;;;4.88;3.67;;;-0.40;99.90;;;;;;8384696;28;20145;-74
2021/01/25 21:06:03;;;;;;;5.78;3.55;;;-0.20;99.90;;;;;;8378655;28;20028;-74